MET'MAP v2.0
soon released !

Expected late october,
this new version will be
more efficient, smarter,
and hosted on a brand new
server x3 powerfull...
...and still free !


Not compatible ?
Try the mobile version !

LOG IN : | Subscribe | Disclaimer | Who is Orbifly ? |
ICAO code :

TAF - EGNH Blackpool - 12 Dec 2019 20:39 UTC - Data Source NOAA   


- Airport Elevation : 34 ft
- IATA code : BLK
- No reported NOTAMs.


EGNH - Blackpool

Latest METAR recorded : 2015/08/11 07:50 EGNH 110750Z 24009KT 9999 FEW014 16/12 Q1019
TAF TAF EGNH
Valid from the 12 at 18:00 until the 12 at 21:00 UTC


121705Z 1218/1221 24012KT 9999 FEW002 SCT006
TEMPO 1218/1219 2000 DZ BR BKN002
TEMPO 1219/1221 6000 SHRA BKN006

Source NOAA
ATIS : +44 1253 343 434 (x8315)


MET'MAP, your aeronautical weather chart ! - Copyright ORBIFLY December 2007

Programming & Development : Alexandra Zaïnal
Co-Developer : Marc-Olivier Méhu
Technical & hardware support : Manuel Goepfert
Concept & Financing : Baudouin d'Aumeries